sensor_id;sensor_type;location;lat;lon;timestamp;temperature;humidity
23550;DHT22;11953;49.010;8.608;2023-05-27T00:01:58;15.70;99.90
23550;DHT22;11953;49.010;8.608;2023-05-27T00:04:45;15.70;99.90
23550;DHT22;11953;49.010;8.608;2023-05-27T00:07:32;15.80;99.90
23550;DHT22;11953;49.010;8.608;2023-05-27T00:10:19;15.80;99.90
23550;DHT22;11953;49.010;8.608;2023-05-27T00:13:07;15.80;99.90
23550;DHT22;11953;49.010;8.608;2023-05-27T00:15:55;15.70;99.90
23550;DHT22;11953;49.010;8.608;2023-05-27T00:18:42;15.60;99.90
23550;DHT22;11953;49.010;8.608;2023-05-27T00:21:28;15.50;99.90
23550;DHT22;11953;49.010;8.608;2023-05-27T00:24:15;15.50;99.90
23550;DHT22;11953;49.010;8.608;2023-05-27T00:27:03;15.60;99.90
23550;DHT22;11953;49.010;8.608;2023-05-27T00:29:52;15.50;99.90
23550;DHT22;11953;49.010;8.608;2023-05-27T00:32:39;15.60;99.90
23550;DHT22;11953;49.010;8.608;2023-05-27T00:35:25;15.40;99.90
23550;DHT22;11953;49.010;8.608;2023-05-27T00:38:12;15.40;99.90
23550;DHT22;11953;49.010;8.608;2023-05-27T00:41:00;15.40;99.90
23550;DHT22;11953;49.010;8.608;2023-05-27T00:43:49;15.40;99.90
23550;DHT22;11953;49.010;8.608;2023-05-27T00:46:37;15.40;99.90
23550;DHT22;11953;49.010;8.608;2023-05-27T00:49:24;15.40;99.90
23550;DHT22;11953;49.010;8.608;2023-05-27T00:52:12;15.40;99.90
23550;DHT22;11953;49.010;8.608;2023-05-27T00:54:59;15.40;99.90
23550;DHT22;11953;49.010;8.608;2023-05-27T00:57:46;15.50;99.90
23550;DHT22;11953;49.010;8.608;2023-05-27T01:00:33;15.40;99.90
23550;DHT22;11953;49.010;8.608;2023-05-27T01:03:22;15.30;99.90
23550;DHT22;11953;49.010;8.608;2023-05-27T01:06:20;15.40;99.90
23550;DHT22;11953;49.010;8.608;2023-05-27T01:09:14;15.50;99.90
23550;DHT22;11953;49.010;8.608;2023-05-27T01:12:07;15.50;99.90
23550;DHT22;11953;49.010;8.608;2023-05-27T01:14:57;15.50;99.90
23550;DHT22;11953;49.010;8.608;2023-05-27T01:17:46;15.50;99.90
23550;DHT22;11953;49.010;8.608;2023-05-27T01:20:36;15.50;99.90
23550;DHT22;11953;49.010;8.608;2023-05-27T01:23:28;15.50;99.90
23550;DHT22;11953;49.010;8.608;2023-05-27T01:26:16;15.60;99.90
23550;DHT22;11953;49.010;8.608;2023-05-27T01:29:04;15.60;99.90
23550;DHT22;11953;49.010;8.608;2023-05-27T01:31:55;15.50;99.90
23550;DHT22;11953;49.010;8.608;2023-05-27T01:34:52;15.30;99.90
23550;DHT22;11953;49.010;8.608;2023-05-27T01:37:41;15.30;99.90
23550;DHT22;11953;49.010;8.608;2023-05-27T01:40:31;15.30;99.90
23550;DHT22;11953;49.010;8.608;2023-05-27T01:43:19;15.30;99.90
23550;DHT22;11953;49.010;8.608;2023-05-27T01:46:06;15.20;99.90
23550;DHT22;11953;49.010;8.608;2023-05-27T01:48:52;15.30;99.90
23550;DHT22;11953;49.010;8.608;2023-05-27T01:51:39;15.20;99.90
23550;DHT22;11953;49.010;8.608;2023-05-27T01:54:27;15.10;99.90
23550;DHT22;11953;49.010;8.608;2023-05-27T01:57:16;15.00;99.90
23550;DHT22;11953;49.010;8.608;2023-05-27T02:00:03;15.00;99.90
23550;DHT22;11953;49.010;8.608;2023-05-27T02:03:01;15.00;99.90
23550;DHT22;11953;49.010;8.608;2023-05-27T02:05:48;14.80;99.90
23550;DHT22;11953;49.010;8.608;2023-05-27T02:08:35;14.60;99.90
23550;DHT22;11953;49.010;8.608;2023-05-27T02:11:23;14.60;99.90
23550;DHT22;11953;49.010;8.608;2023-05-27T02:14:12;14.60;99.90
23550;DHT22;11953;49.010;8.608;2023-05-27T02:16:59;14.50;99.90
23550;DHT22;11953;49.010;8.608;2023-05-27T02:19:46;14.40;99.90
23550;DHT22;11953;49.010;8.608;2023-05-27T02:22:33;14.40;99.90
23550;DHT22;11953;49.010;8.608;2023-05-27T02:25:19;14.40;99.90
23550;DHT22;11953;49.010;8.608;2023-05-27T02:28:06;14.30;99.90
23550;DHT22;11953;49.010;8.608;2023-05-27T02:30:56;14.30;99.90
23550;DHT22;11953;49.010;8.608;2023-05-27T02:33:44;14.20;99.90
23550;DHT22;11953;49.010;8.608;2023-05-27T02:36:31;14.20;99.90
23550;DHT22;11953;49.010;8.608;2023-05-27T02:39:19;14.20;99.90
23550;DHT22;11953;49.010;8.608;2023-05-27T02:42:06;14.10;99.90
23550;DHT22;11953;49.010;8.608;2023-05-27T02:44:53;13.90;99.90
23550;DHT22;11953;49.010;8.608;2023-05-27T02:47:42;13.80;99.90
23550;DHT22;11953;49.010;8.608;2023-05-27T02:50:29;13.80;99.90
23550;DHT22;11953;49.010;8.608;2023-05-27T02:53:16;13.80;99.90
23550;DHT22;11953;49.010;8.608;2023-05-27T02:56:04;13.80;99.90
23550;DHT22;11953;49.010;8.608;2023-05-27T02:58:51;13.70;99.90
23550;DHT22;11953;49.010;8.608;2023-05-27T03:01:37;13.70;99.90
23550;DHT22;11953;49.010;8.608;2023-05-27T03:04:26;13.70;99.90
23550;DHT22;11953;49.010;8.608;2023-05-27T03:07:14;13.70;99.90
23550;DHT22;11953;49.010;8.608;2023-05-27T03:10:01;13.70;99.90
23550;DHT22;11953;49.010;8.608;2023-05-27T03:12:48;13.60;99.90
23550;DHT22;11953;49.010;8.608;2023-05-27T03:15:35;13.60;99.90
23550;DHT22;11953;49.010;8.608;2023-05-27T03:18:22;13.50;99.90
23550;DHT22;11953;49.010;8.608;2023-05-27T03:21:11;13.50;99.90
23550;DHT22;11953;49.010;8.608;2023-05-27T03:23:59;13.50;99.90
23550;DHT22;11953;49.010;8.608;2023-05-27T03:26:46;13.40;99.90
23550;DHT22;11953;49.010;8.608;2023-05-27T03:29:33;13.40;99.90
23550;DHT22;11953;49.010;8.608;2023-05-27T03:32:21;13.50;99.90
23550;DHT22;11953;49.010;8.608;2023-05-27T03:35:09;13.50;99.90
23550;DHT22;11953;49.010;8.608;2023-05-27T03:37:57;13.40;99.90
23550;DHT22;11953;49.010;8.608;2023-05-27T03:40:43;13.50;99.90
23550;DHT22;11953;49.010;8.608;2023-05-27T03:43:30;13.40;99.90
23550;DHT22;11953;49.010;8.608;2023-05-27T03:46:17;13.40;99.90
23550;DHT22;11953;49.010;8.608;2023-05-27T03:49:05;13.40;99.90
23550;DHT22;11953;49.010;8.608;2023-05-27T03:51:52;13.40;99.90
23550;DHT22;11953;49.010;8.608;2023-05-27T03:54:41;13.20;99.90
23550;DHT22;11953;49.010;8.608;2023-05-27T03:57:28;13.30;99.90
23550;DHT22;11953;49.010;8.608;2023-05-27T04:00:15;13.30;99.90
23550;DHT22;11953;49.010;8.608;2023-05-27T04:03:10;13.30;99.90
23550;DHT22;11953;49.010;8.608;2023-05-27T04:05:57;13.50;99.90
23550;DHT22;11953;49.010;8.608;2023-05-27T04:08:44;13.60;99.90
23550;DHT22;11953;49.010;8.608;2023-05-27T04:11:33;13.60;99.90
23550;DHT22;11953;49.010;8.608;2023-05-27T04:14:19;13.60;99.90
23550;DHT22;11953;49.010;8.608;2023-05-27T04:17:07;13.70;99.90
23550;DHT22;11953;49.010;8.608;2023-05-27T04:19:53;13.60;99.90
23550;DHT22;11953;49.010;8.608;2023-05-27T04:22:40;13.70;99.90
23550;DHT22;11953;49.010;8.608;2023-05-27T04:25:27;13.70;99.90
23550;DHT22;11953;49.010;8.608;2023-05-27T04:28:22;13.60;99.90
23550;DHT22;11953;49.010;8.608;2023-05-27T04:31:09;13.80;99.90
23550;DHT22;11953;49.010;8.608;2023-05-27T04:34:04;13.90;99.90
23550;DHT22;11953;49.010;8.608;2023-05-27T04:36:53;14.20;99.90
23550;DHT22;11953;49.010;8.608;2023-05-27T04:39:42;14.20;99.90
23550;DHT22;11953;49.010;8.608;2023-05-27T04:42:31;14.40;99.90
23550;DHT22;11953;49.010;8.608;2023-05-27T04:45:23;14.50;99.90
23550;DHT22;11953;49.010;8.608;2023-05-27T04:48:12;14.60;99.90
23550;DHT22;11953;49.010;8.608;2023-05-27T04:50:59;14.80;99.90
23550;DHT22;11953;49.010;8.608;2023-05-27T04:53:46;15.00;99.90
23550;DHT22;11953;49.010;8.608;2023-05-27T04:56:36;15.20;99.90
23550;DHT22;11953;49.010;8.608;2023-05-27T04:59:23;15.30;99.90
23550;DHT22;11953;49.010;8.608;2023-05-27T05:02:17;15.30;99.90
23550;DHT22;11953;49.010;8.608;2023-05-27T05:05:34;15.30;99.90
23550;DHT22;11953;49.010;8.608;2023-05-27T05:08:22;15.40;99.90
23550;DHT22;11953;49.010;8.608;2023-05-27T05:11:11;15.60;99.90
23550;DHT22;11953;49.010;8.608;2023-05-27T05:14:00;15.50;99.90
23550;DHT22;11953;49.010;8.608;2023-05-27T05:16:48;15.50;99.90
23550;DHT22;11953;49.010;8.608;2023-05-27T05:19:38;15.80;99.90
23550;DHT22;11953;49.010;8.608;2023-05-27T05:22:25;16.20;99.90
23550;DHT22;11953;49.010;8.608;2023-05-27T05:25:14;16.20;99.90
23550;DHT22;11953;49.010;8.608;2023-05-27T05:28:06;16.40;99.90
23550;DHT22;11953;49.010;8.608;2023-05-27T05:30:55;16.60;99.90
23550;DHT22;11953;49.010;8.608;2023-05-27T05:33:41;17.00;99.90
23550;DHT22;11953;49.010;8.608;2023-05-27T05:36:30;17.20;99.90
23550;DHT22;11953;49.010;8.608;2023-05-27T05:39:20;17.10;99.90
23550;DHT22;11953;49.010;8.608;2023-05-27T05:42:10;17.30;99.90
23550;DHT22;11953;49.010;8.608;2023-05-27T05:44:57;17.40;99.90
23550;DHT22;11953;49.010;8.608;2023-05-27T05:47:44;17.00;99.90
23550;DHT22;11953;49.010;8.608;2023-05-27T05:50:35;17.10;99.90
23550;DHT22;11953;49.010;8.608;2023-05-27T05:53:23;16.90;99.90
23550;DHT22;11953;49.010;8.608;2023-05-27T05:56:10;17.00;99.90
23550;DHT22;11953;49.010;8.608;2023-05-27T05:58:57;17.20;99.90
23550;DHT22;11953;49.010;8.608;2023-05-27T06:01:48;17.50;99.90
23550;DHT22;11953;49.010;8.608;2023-05-27T06:04:36;17.50;99.90
23550;DHT22;11953;49.010;8.608;2023-05-27T06:07:23;17.80;99.90
23550;DHT22;11953;49.010;8.608;2023-05-27T06:10:18;18.00;99.90
23550;DHT22;11953;49.010;8.608;2023-05-27T06:13:06;18.20;99.90
23550;DHT22;11953;49.010;8.608;2023-05-27T06:15:56;18.30;99.90
23550;DHT22;11953;49.010;8.608;2023-05-27T06:18:43;18.00;99.90
23550;DHT22;11953;49.010;8.608;2023-05-27T06:21:32;18.10;99.90
23550;DHT22;11953;49.010;8.608;2023-05-27T06:24:48;18.10;99.90
23550;DHT22;11953;49.010;8.608;2023-05-27T06:27:43;18.20;99.90
23550;DHT22;11953;49.010;8.608;2023-05-27T06:30:31;18.50;99.90
23550;DHT22;11953;49.010;8.608;2023-05-27T06:33:19;18.30;99.90
23550;DHT22;11953;49.010;8.608;2023-05-27T06:36:06;18.60;99.90
23550;DHT22;11953;49.010;8.608;2023-05-27T06:38:54;19.20;99.90
23550;DHT22;11953;49.010;8.608;2023-05-27T06:41:40;19.30;99.40
23550;DHT22;11953;49.010;8.608;2023-05-27T06:45:08;19.30;99.30
23550;DHT22;11953;49.010;8.608;2023-05-27T06:47:55;19.60;98.80
23550;DHT22;11953;49.010;8.608;2023-05-27T06:50:42;19.80;98.70
23550;DHT22;11953;49.010;8.608;2023-05-27T06:53:29;19.90;98.40
23550;DHT22;11953;49.010;8.608;2023-05-27T06:56:22;20.00;98.40
23550;DHT22;11953;49.010;8.608;2023-05-27T06:59:28;19.90;98.40
23550;DHT22;11953;49.010;8.608;2023-05-27T07:02:16;20.10;98.30
23550;DHT22;11953;49.010;8.608;2023-05-27T07:05:03;20.50;98.00
23550;DHT22;11953;49.010;8.608;2023-05-27T07:07:50;21.10;97.30
23550;DHT22;11953;49.010;8.608;2023-05-27T07:10:37;21.30;96.80
23550;DHT22;11953;49.010;8.608;2023-05-27T07:13:24;20.80;97.00
23550;DHT22;11953;49.010;8.608;2023-05-27T07:16:12;20.70;96.80
23550;DHT22;11953;49.010;8.608;2023-05-27T07:19:00;21.00;97.00
23550;DHT22;11953;49.010;8.608;2023-05-27T07:21:51;21.20;96.20
23550;DHT22;11953;49.010;8.608;2023-05-27T07:24:40;21.30;96.00
23550;DHT22;11953;49.010;8.608;2023-05-27T07:27:27;21.90;95.60
23550;DHT22;11953;49.010;8.608;2023-05-27T07:30:16;21.30;95.30
23550;DHT22;11953;49.010;8.608;2023-05-27T07:33:08;21.70;95.60
23550;DHT22;11953;49.010;8.608;2023-05-27T07:35:57;21.70;95.40
23550;DHT22;11953;49.010;8.608;2023-05-27T07:38:44;22.20;95.20
23550;DHT22;11953;49.010;8.608;2023-05-27T07:41:31;22.10;94.70
23550;DHT22;11953;49.010;8.608;2023-05-27T07:44:20;22.20;94.50
23550;DHT22;11953;49.010;8.608;2023-05-27T07:47:07;22.50;94.30
23550;DHT22;11953;49.010;8.608;2023-05-27T07:49:54;22.50;93.70
23550;DHT22;11953;49.010;8.608;2023-05-27T07:53:00;22.00;94.20
23550;DHT22;11953;49.010;8.608;2023-05-27T07:55:48;22.10;94.40
23550;DHT22;11953;49.010;8.608;2023-05-27T07:58:35;22.50;94.50
23550;DHT22;11953;49.010;8.608;2023-05-27T08:01:27;23.00;93.40
23550;DHT22;11953;49.010;8.608;2023-05-27T08:04:17;23.30;93.10
23550;DHT22;11953;49.010;8.608;2023-05-27T08:07:42;23.10;92.70
23550;DHT22;11953;49.010;8.608;2023-05-27T08:10:53;22.70;92.60
23550;DHT22;11953;49.010;8.608;2023-05-27T08:13:59;23.10;93.20
23550;DHT22;11953;49.010;8.608;2023-05-27T08:17:06;23.00;91.80
23550;DHT22;11953;49.010;8.608;2023-05-27T08:20:11;23.40;92.60
23550;DHT22;11953;49.010;8.608;2023-05-27T08:23:04;23.00;92.00
23550;DHT22;11953;49.010;8.608;2023-05-27T08:26:29;23.10;92.30
23550;DHT22;11953;49.010;8.608;2023-05-27T08:29:36;23.00;91.90
23550;DHT22;11953;49.010;8.608;2023-05-27T08:32:44;22.90;92.20
23550;DHT22;11953;49.010;8.608;2023-05-27T08:35:31;23.30;92.10
23550;DHT22;11953;49.010;8.608;2023-05-27T08:38:18;22.90;91.90
23550;DHT22;11953;49.010;8.608;2023-05-27T08:41:06;23.30;92.20
23550;DHT22;11953;49.010;8.608;2023-05-27T08:43:55;23.50;91.70
23550;DHT22;11953;49.010;8.608;2023-05-27T08:47:02;23.60;91.50
23550;DHT22;11953;49.010;8.608;2023-05-27T08:49:49;23.80;91.00
23550;DHT22;11953;49.010;8.608;2023-05-27T08:52:40;23.80;90.90
23550;DHT22;11953;49.010;8.608;2023-05-27T08:55:30;23.80;91.20
23550;DHT22;11953;49.010;8.608;2023-05-27T08:58:17;24.20;90.50
23550;DHT22;11953;49.010;8.608;2023-05-27T09:01:08;23.70;91.00
23550;DHT22;11953;49.010;8.608;2023-05-27T09:03:55;24.10;91.00
23550;DHT22;11953;49.010;8.608;2023-05-27T09:06:42;24.90;90.60
23550;DHT22;11953;49.010;8.608;2023-05-27T09:09:29;24.90;90.50
23550;DHT22;11953;49.010;8.608;2023-05-27T09:12:22;24.50;90.40
23550;DHT22;11953;49.010;8.608;2023-05-27T09:15:10;24.90;90.10
23550;DHT22;11953;49.010;8.608;2023-05-27T09:17:59;24.30;90.10
23550;DHT22;11953;49.010;8.608;2023-05-27T09:20:46;24.30;90.70
23550;DHT22;11953;49.010;8.608;2023-05-27T09:23:37;24.30;90.60
23550;DHT22;11953;49.010;8.608;2023-05-27T09:26:23;24.70;90.00
23550;DHT22;11953;49.010;8.608;2023-05-27T09:29:10;24.70;89.30
23550;DHT22;11953;49.010;8.608;2023-05-27T09:31:57;24.50;90.40
23550;DHT22;11953;49.010;8.608;2023-05-27T09:34:46;24.60;89.30
23550;DHT22;11953;49.010;8.608;2023-05-27T09:37:33;24.80;90.60
23550;DHT22;11953;49.010;8.608;2023-05-27T09:40:21;24.40;90.50
23550;DHT22;11953;49.010;8.608;2023-05-27T09:43:13;24.70;90.20
23550;DHT22;11953;49.010;8.608;2023-05-27T09:46:00;25.30;89.50
23550;DHT22;11953;49.010;8.608;2023-05-27T09:48:48;25.30;88.70
23550;DHT22;11953;49.010;8.608;2023-05-27T09:51:37;24.90;88.50
23550;DHT22;11953;49.010;8.608;2023-05-27T09:54:25;24.80;89.10
23550;DHT22;11953;49.010;8.608;2023-05-27T09:57:13;24.40;89.80
23550;DHT22;11953;49.010;8.608;2023-05-27T10:00:02;23.90;90.30
23550;DHT22;11953;49.010;8.608;2023-05-27T10:02:57;24.20;89.90
23550;DHT22;11953;49.010;8.608;2023-05-27T10:05:46;24.60;90.30
23550;DHT22;11953;49.010;8.608;2023-05-27T10:08:36;24.80;89.90
23550;DHT22;11953;49.010;8.608;2023-05-27T10:11:24;24.80;89.50
23550;DHT22;11953;49.010;8.608;2023-05-27T10:14:12;24.90;90.10
23550;DHT22;11953;49.010;8.608;2023-05-27T10:17:01;25.00;89.60
23550;DHT22;11953;49.010;8.608;2023-05-27T10:19:54;24.80;89.10
23550;DHT22;11953;49.010;8.608;2023-05-27T10:22:43;24.80;89.20
23550;DHT22;11953;49.010;8.608;2023-05-27T10:25:36;25.20;88.60
23550;DHT22;11953;49.010;8.608;2023-05-27T10:28:25;24.70;88.40
23550;DHT22;11953;49.010;8.608;2023-05-27T10:31:15;24.60;88.00
23550;DHT22;11953;49.010;8.608;2023-05-27T10:34:03;25.10;90.20
23550;DHT22;11953;49.010;8.608;2023-05-27T10:36:58;25.00;91.20
23550;DHT22;11953;49.010;8.608;2023-05-27T10:39:53;25.30;88.60
23550;DHT22;11953;49.010;8.608;2023-05-27T10:42:41;25.20;89.10
23550;DHT22;11953;49.010;8.608;2023-05-27T10:45:32;25.20;89.50
23550;DHT22;11953;49.010;8.608;2023-05-27T10:48:20;25.80;89.10
23550;DHT22;11953;49.010;8.608;2023-05-27T10:51:07;25.00;88.30
23550;DHT22;11953;49.010;8.608;2023-05-27T10:53:55;24.70;88.70
23550;DHT22;11953;49.010;8.608;2023-05-27T10:57:02;24.90;90.30
23550;DHT22;11953;49.010;8.608;2023-05-27T10:59:51;25.00;88.70
23550;DHT22;11953;49.010;8.608;2023-05-27T11:02:44;24.80;89.10
23550;DHT22;11953;49.010;8.608;2023-05-27T11:05:32;24.60;90.00
23550;DHT22;11953;49.010;8.608;2023-05-27T11:08:20;24.60;90.00
23550;DHT22;11953;49.010;8.608;2023-05-27T11:11:09;25.00;90.00
23550;DHT22;11953;49.010;8.608;2023-05-27T11:13:56;24.90;89.10
23550;DHT22;11953;49.010;8.608;2023-05-27T11:16:48;24.90;90.00
23550;DHT22;11953;49.010;8.608;2023-05-27T11:19:38;24.90;90.40
23550;DHT22;11953;49.010;8.608;2023-05-27T11:22:25;25.30;90.20
23550;DHT22;11953;49.010;8.608;2023-05-27T11:25:12;25.30;89.30
23550;DHT22;11953;49.010;8.608;2023-05-27T11:27:59;25.20;88.60
23550;DHT22;11953;49.010;8.608;2023-05-27T11:30:46;25.40;89.20
23550;DHT22;11953;49.010;8.608;2023-05-27T11:33:42;25.30;89.30
23550;DHT22;11953;49.010;8.608;2023-05-27T11:36:29;25.50;88.20
23550;DHT22;11953;49.010;8.608;2023-05-27T11:39:17;25.80;88.40
23550;DHT22;11953;49.010;8.608;2023-05-27T11:42:05;26.10;87.40
23550;DHT22;11953;49.010;8.608;2023-05-27T11:44:53;25.30;87.30
23550;DHT22;11953;49.010;8.608;2023-05-27T11:47:41;25.30;88.50
23550;DHT22;11953;49.010;8.608;2023-05-27T11:50:29;25.30;88.00
23550;DHT22;11953;49.010;8.608;2023-05-27T11:53:16;25.40;88.10
23550;DHT22;11953;49.010;8.608;2023-05-27T11:56:03;25.60;89.10
23550;DHT22;11953;49.010;8.608;2023-05-27T11:58:50;25.30;89.20
23550;DHT22;11953;49.010;8.608;2023-05-27T12:01:37;24.90;88.40
23550;DHT22;11953;49.010;8.608;2023-05-27T12:04:24;24.70;90.10
23550;DHT22;11953;49.010;8.608;2023-05-27T12:07:12;24.80;89.90
23550;DHT22;11953;49.010;8.608;2023-05-27T12:10:06;25.00;90.00
23550;DHT22;11953;49.010;8.608;2023-05-27T12:12:53;24.90;90.00
23550;DHT22;11953;49.010;8.608;2023-05-27T12:15:48;24.70;88.60
23550;DHT22;11953;49.010;8.608;2023-05-27T12:18:35;24.40;88.40
23550;DHT22;11953;49.010;8.608;2023-05-27T12:21:22;24.30;90.00
23550;DHT22;11953;49.010;8.608;2023-05-27T12:24:10;24.40;89.10
23550;DHT22;11953;49.010;8.608;2023-05-27T12:26:57;24.10;90.00
23550;DHT22;11953;49.010;8.608;2023-05-27T12:29:44;24.00;89.00
23550;DHT22;11953;49.010;8.608;2023-05-27T12:32:32;24.10;89.00
23550;DHT22;11953;49.010;8.608;2023-05-27T12:35:19;24.00;89.50
23550;DHT22;11953;49.010;8.608;2023-05-27T12:38:06;24.10;88.80
23550;DHT22;11953;49.010;8.608;2023-05-27T12:40:54;24.00;88.40
23550;DHT22;11953;49.010;8.608;2023-05-27T12:43:42;23.90;90.30
23550;DHT22;11953;49.010;8.608;2023-05-27T12:46:29;23.80;88.70
23550;DHT22;11953;49.010;8.608;2023-05-27T12:49:16;23.70;90.00
23550;DHT22;11953;49.010;8.608;2023-05-27T12:52:03;23.90;90.10
23550;DHT22;11953;49.010;8.608;2023-05-27T12:54:50;23.90;88.50
23550;DHT22;11953;49.010;8.608;2023-05-27T12:57:38;23.90;89.30
23550;DHT22;11953;49.010;8.608;2023-05-27T13:00:26;23.90;89.60
23550;DHT22;11953;49.010;8.608;2023-05-27T13:03:12;23.80;88.00
23550;DHT22;11953;49.010;8.608;2023-05-27T13:06:00;23.80;86.90
23550;DHT22;11953;49.010;8.608;2023-05-27T13:08:46;23.90;89.30
23550;DHT22;11953;49.010;8.608;2023-05-27T13:11:33;24.00;88.30
23550;DHT22;11953;49.010;8.608;2023-05-27T13:14:22;23.90;88.50
23550;DHT22;11953;49.010;8.608;2023-05-27T13:17:09;23.80;87.90
23550;DHT22;11953;49.010;8.608;2023-05-27T13:19:56;23.60;87.90
23550;DHT22;11953;49.010;8.608;2023-05-27T13:22:44;23.60;87.70
23550;DHT22;11953;49.010;8.608;2023-05-27T13:25:31;23.60;87.20
23550;DHT22;11953;49.010;8.608;2023-05-27T13:28:18;23.60;87.30
23550;DHT22;11953;49.010;8.608;2023-05-27T13:31:06;23.60;86.10
23550;DHT22;11953;49.010;8.608;2023-05-27T13:33:53;23.60;86.30
23550;DHT22;11953;49.010;8.608;2023-05-27T13:36:40;23.70;86.50
23550;DHT22;11953;49.010;8.608;2023-05-27T13:39:27;23.80;88.00
23550;DHT22;11953;49.010;8.608;2023-05-27T13:42:15;23.80;85.10
23550;DHT22;11953;49.010;8.608;2023-05-27T13:45:02;23.80;85.40
23550;DHT22;11953;49.010;8.608;2023-05-27T13:47:51;23.80;87.30
23550;DHT22;11953;49.010;8.608;2023-05-27T13:50:38;23.60;86.40
23550;DHT22;11953;49.010;8.608;2023-05-27T13:53:24;23.60;85.80
23550;DHT22;11953;49.010;8.608;2023-05-27T13:56:11;23.50;85.30
23550;DHT22;11953;49.010;8.608;2023-05-27T13:58:58;23.40;86.10
23550;DHT22;11953;49.010;8.608;2023-05-27T14:01:48;23.60;86.50
23550;DHT22;11953;49.010;8.608;2023-05-27T14:04:37;23.70;86.70
23550;DHT22;11953;49.010;8.608;2023-05-27T14:07:24;23.60;87.10
23550;DHT22;11953;49.010;8.608;2023-05-27T14:10:11;23.60;85.60
23550;DHT22;11953;49.010;8.608;2023-05-27T14:12:58;23.60;86.20
23550;DHT22;11953;49.010;8.608;2023-05-27T14:15:45;23.70;87.10
23550;DHT22;11953;49.010;8.608;2023-05-27T14:18:31;23.70;84.90
23550;DHT22;11953;49.010;8.608;2023-05-27T14:21:20;23.60;85.40
23550;DHT22;11953;49.010;8.608;2023-05-27T14:24:06;23.60;84.90
23550;DHT22;11953;49.010;8.608;2023-05-27T14:26:53;23.60;85.90
23550;DHT22;11953;49.010;8.608;2023-05-27T14:29:40;23.70;86.90
23550;DHT22;11953;49.010;8.608;2023-05-27T14:32:27;23.70;87.00
23550;DHT22;11953;49.010;8.608;2023-05-27T14:35:14;23.70;85.00
23550;DHT22;11953;49.010;8.608;2023-05-27T14:38:03;23.70;86.60
23550;DHT22;11953;49.010;8.608;2023-05-27T14:40:50;23.80;86.80
23550;DHT22;11953;49.010;8.608;2023-05-27T14:43:36;23.90;87.90
23550;DHT22;11953;49.010;8.608;2023-05-27T14:46:23;23.80;83.90
23550;DHT22;11953;49.010;8.608;2023-05-27T14:49:10;23.70;85.50
23550;DHT22;11953;49.010;8.608;2023-05-27T14:51:57;23.80;82.10
23550;DHT22;11953;49.010;8.608;2023-05-27T14:54:45;23.70;84.30
23550;DHT22;11953;49.010;8.608;2023-05-27T14:57:32;23.80;83.20
23550;DHT22;11953;49.010;8.608;2023-05-27T15:00:20;23.90;84.90
23550;DHT22;11953;49.010;8.608;2023-05-27T15:03:07;24.00;83.50
23550;DHT22;11953;49.010;8.608;2023-05-27T15:05:54;24.00;82.50
23550;DHT22;11953;49.010;8.608;2023-05-27T15:08:43;24.00;81.90
23550;DHT22;11953;49.010;8.608;2023-05-27T15:11:31;24.00;80.70
23550;DHT22;11953;49.010;8.608;2023-05-27T15:14:18;23.90;80.60
23550;DHT22;11953;49.010;8.608;2023-05-27T15:17:05;24.00;80.80
23550;DHT22;11953;49.010;8.608;2023-05-27T15:19:56;23.90;79.30
23550;DHT22;11953;49.010;8.608;2023-05-27T15:22:44;23.90;79.40
23550;DHT22;11953;49.010;8.608;2023-05-27T15:25:30;23.80;77.30
23550;DHT22;11953;49.010;8.608;2023-05-27T15:28:19;23.70;76.80
23550;DHT22;11953;49.010;8.608;2023-05-27T15:31:05;23.60;78.00
23550;DHT22;11953;49.010;8.608;2023-05-27T15:33:55;23.60;76.90
23550;DHT22;11953;49.010;8.608;2023-05-27T15:36:42;23.50;77.00
23550;DHT22;11953;49.010;8.608;2023-05-27T15:39:29;23.70;77.50
23550;DHT22;11953;49.010;8.608;2023-05-27T15:42:16;23.50;75.50
23550;DHT22;11953;49.010;8.608;2023-05-27T15:45:05;23.50;76.60
23550;DHT22;11953;49.010;8.608;2023-05-27T15:47:52;23.50;76.00
23550;DHT22;11953;49.010;8.608;2023-05-27T15:50:40;23.60;75.80
23550;DHT22;11953;49.010;8.608;2023-05-27T15:53:27;23.50;74.50
23550;DHT22;11953;49.010;8.608;2023-05-27T15:56:14;23.50;75.00
23550;DHT22;11953;49.010;8.608;2023-05-27T15:59:01;23.40;73.50
23550;DHT22;11953;49.010;8.608;2023-05-27T16:01:49;23.40;72.90
23550;DHT22;11953;49.010;8.608;2023-05-27T16:04:36;23.40;74.00
23550;DHT22;11953;49.010;8.608;2023-05-27T16:07:23;23.40;74.30
23550;DHT22;11953;49.010;8.608;2023-05-27T16:10:10;23.50;74.60
23550;DHT22;11953;49.010;8.608;2023-05-27T16:12:57;23.50;73.40
23550;DHT22;11953;49.010;8.608;2023-05-27T16:15:44;23.40;73.60
23550;DHT22;11953;49.010;8.608;2023-05-27T16:18:33;23.30;73.00
23550;DHT22;11953;49.010;8.608;2023-05-27T16:21:22;23.40;75.20
23550;DHT22;11953;49.010;8.608;2023-05-27T16:24:09;23.40;73.60
23550;DHT22;11953;49.010;8.608;2023-05-27T16:26:56;23.30;72.70
23550;DHT22;11953;49.010;8.608;2023-05-27T16:29:43;23.20;72.50
23550;DHT22;11953;49.010;8.608;2023-05-27T16:32:30;23.30;73.80
23550;DHT22;11953;49.010;8.608;2023-05-27T16:35:18;23.20;74.40
23550;DHT22;11953;49.010;8.608;2023-05-27T16:38:05;23.20;73.70
23550;DHT22;11953;49.010;8.608;2023-05-27T16:40:51;23.30;73.40
23550;DHT22;11953;49.010;8.608;2023-05-27T16:43:38;23.30;74.20
23550;DHT22;11953;49.010;8.608;2023-05-27T16:46:25;23.30;75.10
23550;DHT22;11953;49.010;8.608;2023-05-27T16:49:12;23.30;75.30
23550;DHT22;11953;49.010;8.608;2023-05-27T16:52:00;23.30;74.50
23550;DHT22;11953;49.010;8.608;2023-05-27T16:54:47;23.10;73.60
23550;DHT22;11953;49.010;8.608;2023-05-27T16:57:34;23.00;73.50
23550;DHT22;11953;49.010;8.608;2023-05-27T17:00:21;23.00;75.30
23550;DHT22;11953;49.010;8.608;2023-05-27T17:03:08;23.10;74.50
23550;DHT22;11953;49.010;8.608;2023-05-27T17:05:55;23.00;74.40
23550;DHT22;11953;49.010;8.608;2023-05-27T17:08:44;22.90;74.10
23550;DHT22;11953;49.010;8.608;2023-05-27T17:11:31;22.90;74.00
23550;DHT22;11953;49.010;8.608;2023-05-27T17:14:18;23.00;74.50
23550;DHT22;11953;49.010;8.608;2023-05-27T17:17:05;22.90;74.50
23550;DHT22;11953;49.010;8.608;2023-05-27T17:19:52;22.90;74.50
23550;DHT22;11953;49.010;8.608;2023-05-27T17:22:39;22.90;75.50
23550;DHT22;11953;49.010;8.608;2023-05-27T17:25:27;22.80;74.80
23550;DHT22;11953;49.010;8.608;2023-05-27T17:28:14;22.80;75.90
23550;DHT22;11953;49.010;8.608;2023-05-27T17:31:01;22.80;76.20
23550;DHT22;11953;49.010;8.608;2023-05-27T17:33:48;22.80;75.80
23550;DHT22;11953;49.010;8.608;2023-05-27T17:36:35;22.80;75.50
23550;DHT22;11953;49.010;8.608;2023-05-27T17:39:22;22.70;76.90
23550;DHT22;11953;49.010;8.608;2023-05-27T17:42:10;22.70;76.10
23550;DHT22;11953;49.010;8.608;2023-05-27T17:44:57;22.80;76.10
23550;DHT22;11953;49.010;8.608;2023-05-27T17:47:44;22.70;76.30